Time;durP1;ratioP1;P1;durP2;ratioP2;P2;SDS_P1;SDS_P2;PMS_P1;PMS_P2;Temp;Humidity;BMP_temperature;BMP_pressure;BME280_temperature;BME280_humidity;BME280_pressure;Samples;Min_cycle;Max_cycle;Signal;HPM_P1;HPM_P2
2021/12/25 00:02:19;;;;;;;0.43;0.33;;;;;;;-2.76;100.00;99846.81;5090992;28;20243;-76
2021/12/25 00:04:44;;;;;;;0.40;0.40;;;;;;;-2.80;100.00;99847.53;5091082;28;20263;-76
2021/12/25 00:07:10;;;;;;;3.87;0.40;;;;;;;-2.78;100.00;99856.91;5091424;28;20178;-76
2021/12/25 00:09:35;;;;;;;1.23;0.60;;;;;;;-2.77;100.00;99863.06;5089789;28;20538;-76
2021/12/25 00:12:01;;;;;;;0.70;0.43;;;;;;;-2.81;100.00;99864.63;5091186;28;20181;-76
2021/12/25 00:14:26;;;;;;;1.47;0.50;;;;;;;-2.79;100.00;99860.66;5090963;28;20556;-76
2021/12/25 00:16:53;;;;;;;0.87;0.40;;;;;;;-2.81;100.00;99867.28;5090906;28;20178;-76
2021/12/25 00:19:18;;;;;;;0.43;0.43;;;;;;;-2.79;100.00;99867.84;5091269;28;20170;-76
2021/12/25 00:21:46;;;;;;;1.53;0.43;;;;;;;-2.75;100.00;99869.00;5090816;28;20480;-77
2021/12/25 00:24:12;;;;;;;2.20;0.50;;;;;;;-2.78;100.00;99862.28;5090968;28;20170;-75
2021/12/25 00:26:49;;;;;;;0.30;0.30;;;;;;;-2.72;100.00;99871.22;5090804;28;20420;-77
2021/12/25 00:34:40;;;;;;;0.43;0.43;;;;;;;-2.68;100.00;99877.69;5090220;28;20524;-77
2021/12/25 00:37:07;;;;;;;2.87;1.17;;;;;;;-2.66;100.00;99888.97;5090240;28;20412;-76
2021/12/25 00:39:33;;;;;;;1.27;1.00;;;;;;;-2.63;100.00;99890.34;5090776;28;20448;-75
2021/12/25 00:42:00;;;;;;;0.63;0.63;;;;;;;-2.57;100.00;99905.44;5091273;28;20455;-76
2021/12/25 00:44:26;;;;;;;0.97;0.80;;;;;;;-2.56;100.00;99910.56;5090700;28;20231;-76
2021/12/25 00:46:52;;;;;;;1.13;0.90;;;;;;;-2.59;100.00;99907.56;5090648;28;20416;-77
2021/12/25 00:49:18;;;;;;;0.87;0.70;;;;;;;-2.62;100.00;99902.66;5090766;28;20416;-77
2021/12/25 00:51:44;;;;;;;0.77;0.70;;;;;;;-2.60;100.00;99908.59;5090741;28;20269;-76
2021/12/25 00:54:10;;;;;;;0.57;0.57;;;;;;;-2.58;100.00;99917.19;5090609;28;20247;-76
2021/12/25 00:56:36;;;;;;;1.00;0.60;;;;;;;-2.58;100.00;99918.00;5090402;28;20903;-77
2021/12/25 00:59:01;;;;;;;0.40;0.40;;;;;;;-2.61;100.00;99923.81;5090803;28;20251;-77
2021/12/25 01:01:26;;;;;;;0.10;0.10;;;;;;;-2.62;100.00;99918.69;5089333;28;20196;-76
2021/12/25 01:03:51;;;;;;;0.27;0.20;;;;;;;-2.63;96.94;99922.44;5090551;28;20175;-76
2021/12/25 01:06:17;;;;;;;0.10;0.10;;;;;;;-2.66;95.67;99937.09;5090460;28;20651;-78
2021/12/25 01:08:42;;;;;;;0.30;0.20;;;;;;;-2.70;93.49;99928.75;5090607;28;20661;-76
2021/12/25 01:11:08;;;;;;;1.27;0.27;;;;;;;-2.79;92.04;99924.81;5090788;28;20692;-76
2021/12/25 01:13:39;;;;;;;0.37;0.37;;;;;;;-2.77;93.26;99925.38;5090366;28;20248;-78
2021/12/25 01:16:30;;;;;;;0.40;0.40;;;;;;;-2.81;93.79;99926.09;5090460;28;20178;-78
2021/12/25 01:31:51;;;;;;;0.20;0.20;;;;;;;-3.05;90.08;99928.78;5090459;28;20264;-76
2021/12/25 01:37:18;;;;;;;1.10;0.20;;;;;;;-3.05;92.03;99941.34;5089063;28;20451;-77
2021/12/25 01:47:45;;;;;;;9.53;1.80;;;;;;;-3.08;94.24;99939.97;5090167;28;20396;-76
2021/12/25 01:50:20;;;;;;;0.30;0.20;;;;;;;-3.13;95.40;99958.56;5093170;28;20487;-77
2021/12/25 01:52:46;;;;;;;0.33;0.20;;;;;;;-3.17;94.40;99957.41;5093879;28;20174;-77
2021/12/25 01:55:16;;;;;;;0.13;0.13;;;;;;;-3.16;94.71;99963.56;5092266;28;20553;-77
2021/12/25 01:57:41;;;;;;;0.20;0.10;;;;;;;-3.17;94.56;99960.09;5093611;28;20419;-77
2021/12/25 02:00:14;;;;;;;0.17;0.17;;;;;;;-3.22;94.27;99962.63;5093635;28;20411;-78
2021/12/25 02:02:39;;;;;;;0.00;0.00;;;;;;;-3.19;95.36;99966.69;5093415;28;20174;-77
2021/12/25 02:05:05;;;;;;;0.63;0.23;;;;;;;-3.20;95.83;99965.88;5093401;28;20416;-77
2021/12/25 02:07:30;;;;;;;0.20;0.20;;;;;;;-3.23;95.29;99963.66;5092240;28;20166;-77
2021/12/25 02:09:56;;;;;;;0.00;0.00;;;;;;;-3.23;95.08;99966.34;5093436;28;20170;-76
2021/12/25 02:12:21;;;;;;;0.10;0.00;;;;;;;-3.16;95.01;99968.91;5093414;28;20173;-77
2021/12/25 02:14:48;;;;;;;0.10;0.10;;;;;;;-3.19;91.15;99970.16;5093153;28;20194;-77
2021/12/25 02:17:32;;;;;;;1.33;0.40;;;;;;;-3.23;86.71;99968.19;5093305;28;20419;-76
2021/12/25 02:20:18;;;;;;;0.33;0.10;;;;;;;-3.32;84.25;99984.59;5093496;28;20800;-77
2021/12/25 02:22:45;;;;;;;0.17;0.10;;;;;;;-3.29;83.40;99975.28;5093082;28;20918;-77
2021/12/25 02:25:11;;;;;;;0.17;0.10;;;;;;;-3.36;82.06;99978.06;5093087;28;20439;-77
2021/12/25 02:27:37;;;;;;;0.20;0.20;;;;;;;-3.37;82.46;99979.09;5093093;28;20744;-77
2021/12/25 02:30:04;;;;;;;0.50;0.47;;;;;;;-3.40;82.06;99976.91;5093158;28;20633;-78
2021/12/25 02:32:29;;;;;;;0.33;0.20;;;;;;;-3.49;81.49;99972.13;5093009;28;20637;-77
2021/12/25 02:34:54;;;;;;;0.33;0.17;;;;;;;-3.54;81.86;99974.69;5092841;28;20467;-77
2021/12/25 02:37:20;;;;;;;0.07;0.07;;;;;;;-3.50;83.34;99975.84;5093107;28;20252;-77
2021/12/25 02:39:45;;;;;;;0.10;0.10;;;;;;;-3.55;82.57;99975.72;5092969;28;20180;-77
2021/12/25 02:42:11;;;;;;;0.03;0.03;;;;;;;-3.61;82.05;99972.94;5092891;28;20204;-77
2021/12/25 02:44:36;;;;;;;0.47;0.03;;;;;;;-3.67;82.57;99968.50;5092744;28;20162;-78
2021/12/25 02:47:09;;;;;;;1.50;0.20;;;;;;;-3.68;82.74;99974.09;5092667;28;20622;-78
2021/12/25 02:49:36;;;;;;;0.00;0.00;;;;;;;-3.72;82.97;99976.41;5092830;28;20162;-78
2021/12/25 02:52:02;;;;;;;0.67;0.17;;;;;;;-3.76;82.72;99966.41;5092598;28;20412;-77
2021/12/25 02:54:28;;;;;;;0.10;0.00;;;;;;;-3.77;82.53;99970.13;5092435;28;20495;-78
2021/12/25 02:56:53;;;;;;;0.23;0.10;;;;;;;-3.77;83.20;99970.13;5091138;28;20502;-78
2021/12/25 02:59:18;;;;;;;0.10;0.10;;;;;;;-3.79;83.43;99967.69;5092045;28;20490;-77
2021/12/25 03:01:44;;;;;;;1.03;0.20;;;;;;;-3.83;84.04;99966.50;5092448;28;20169;-77
2021/12/25 03:04:09;;;;;;;0.10;0.10;;;;;;;-3.81;84.55;99991.13;5092379;28;20178;-78
2021/12/25 03:06:37;;;;;;;0.00;0.00;;;;;;;-3.80;85.02;99997.25;5091078;28;20792;-78
2021/12/25 03:09:05;;;;;;;0.77;0.20;;;;;;;-3.84;84.32;99988.91;5092358;28;20259;-78
2021/12/25 03:11:30;;;;;;;0.30;0.10;;;;;;;-3.84;85.51;99983.56;5092285;28;20449;-78
2021/12/25 03:13:58;;;;;;;0.00;0.00;;;;;;;-3.82;86.53;100004.69;5092522;28;20550;-78
2021/12/25 03:16:25;;;;;;;0.20;0.00;;;;;;;-3.86;86.47;99992.84;5090848;28;20185;-77
2021/12/25 03:18:53;;;;;;;0.20;0.20;;;;;;;-3.90;86.14;99984.50;5090900;28;20868;-78
2021/12/25 03:21:20;;;;;;;0.03;0.03;;;;;;;-3.88;86.41;99978.94;5092069;28;20522;-78
2021/12/25 03:23:48;;;;;;;0.57;0.10;;;;;;;-3.89;85.82;99988.78;5092325;28;20454;-78
2021/12/25 03:26:14;;;;;;;1.00;0.37;;;;;;;-3.95;84.54;99987.00;5091925;28;20910;-78
2021/12/25 03:28:44;;;;;;;0.00;0.00;;;;;;;-3.96;84.32;99988.88;5091878;28;20523;-78
2021/12/25 03:31:19;;;;;;;1.13;0.10;;;;;;;-3.97;84.63;99995.25;5091917;28;20243;-78
2021/12/25 03:33:46;;;;;;;0.00;0.00;;;;;;;-3.93;85.37;100011.59;5091773;28;20549;-77
2021/12/25 03:36:12;;;;;;;0.23;0.10;;;;;;;-3.98;84.79;100011.47;5091643;28;20907;-78
2021/12/25 03:38:37;;;;;;;0.17;0.13;;;;;;;-3.99;85.37;100008.00;5091810;28;20469;-78
2021/12/25 03:41:06;;;;;;;0.30;0.20;;;;;;;-4.03;85.05;100006.03;5091793;28;20180;-78
2021/12/25 03:43:34;;;;;;;1.53;0.13;;;;;;;-4.03;86.16;100019.38;5090501;28;20640;-78
2021/12/25 03:45:59;;;;;;;0.20;0.03;;;;;;;-4.05;85.57;100022.25;5090366;28;20424;-78
2021/12/25 03:59:01;;;;;;;1.50;0.10;;;;;;;-4.09;87.68;100022.91;5091631;28;20399;-79
2021/12/25 04:06:26;;;;;;;0.10;0.10;;;;;;;-4.12;87.61;100018.84;5091846;28;20774;-79
2021/12/25 04:08:52;;;;;;;0.10;0.10;;;;;;;-4.12;87.61;100018.03;5091338;28;20448;-78
2021/12/25 04:11:27;;;;;;;0.20;0.10;;;;;;;-4.15;87.08;100018.50;5090155;28;20253;-80
2021/12/25 04:13:54;;;;;;;0.53;0.53;;;;;;;-4.15;87.30;100023.84;5091278;28;20197;-79
2021/12/25 04:16:19;;;;;;;0.13;0.13;;;;;;;-4.13;87.49;100025.22;5091113;28;20424;-80
2021/12/25 04:18:45;;;;;;;0.17;0.10;;;;;;;-4.14;87.89;100038.78;5091213;28;20899;-82
2021/12/25 04:21:10;;;;;;;0.10;0.10;;;;;;;-4.13;88.17;100041.22;5090826;28;20189;-80
2021/12/25 04:23:39;;;;;;;0.13;0.13;;;;;;;-4.11;88.82;100043.66;5091106;28;20312;-80
2021/12/25 04:26:04;;;;;;;0.10;0.10;;;;;;;-4.16;89.64;100039.03;5091048;28;20222;-80
2021/12/25 05:01:46;;;;;;;0.77;0.77;;;;;;;-4.66;89.40;100031.19;5090817;28;20419;-80
2021/12/25 05:04:01;;;;;;;0.73;0.33;;;;;;;-4.74;90.25;100025.38;5090556;28;20514;-79
2021/12/25 05:06:26;;;;;;;0.10;0.10;;;;;;;-4.74;91.20;100044.00;5090287;28;20503;-79
2021/12/25 05:08:54;;;;;;;0.10;0.10;;;;;;;-4.79;91.41;100029.47;5089499;28;20982;-79
2021/12/25 05:11:20;;;;;;;0.33;0.17;;;;;;;-4.80;91.17;100041.19;5090556;28;20178;-78
2021/12/25 05:13:48;;;;;;;0.20;0.20;;;;;;;-4.86;91.24;100042.06;5089102;28;20993;-79
2021/12/25 05:16:14;;;;;;;0.10;0.10;;;;;;;-4.86;92.29;100041.25;5090152;28;20502;-80
2021/12/25 05:18:39;;;;;;;0.20;0.10;;;;;;;-4.87;92.92;100036.97;5090546;28;20550;-79
2021/12/25 05:21:07;;;;;;;0.37;0.10;;;;;;;-4.91;92.52;100039.25;5090727;28;20214;-80
2021/12/25 05:23:32;;;;;;;2.43;0.20;;;;;;;-4.94;92.82;100047.66;5092804;28;20741;-78
2021/12/25 05:25:57;;;;;;;0.47;0.20;;;;;;;-4.96;93.80;100032.94;5092725;28;20515;-79
2021/12/25 05:28:25;;;;;;;0.03;0.00;;;;;;;-4.94;93.34;100038.88;5094174;28;20806;-78
2021/12/25 05:30:53;;;;;;;0.50;0.20;;;;;;;-4.98;93.90;100041.16;5094176;28;20170;-78
2021/12/25 05:33:19;;;;;;;0.00;0.00;;;;;;;-5.00;93.74;100043.25;5094023;28;20466;-78
2021/12/25 05:35:44;;;;;;;0.00;0.00;;;;;;;-5.00;93.52;100053.06;5094045;28;20423;-80
2021/12/25 05:38:14;;;;;;;0.73;0.10;;;;;;;-5.01;93.75;100057.59;5094007;28;20473;-78
2021/12/25 05:40:41;;;;;;;0.10;0.10;;;;;;;-5.02;94.34;100053.31;5094178;28;20174;-78
2021/12/25 05:43:06;;;;;;;0.10;0.10;;;;;;;-5.00;93.89;100053.06;5094012;28;20416;-79
2021/12/25 05:45:32;;;;;;;0.17;0.10;;;;;;;-5.02;94.80;100058.63;5093868;28;20754;-78
2021/12/25 05:47:57;;;;;;;0.00;0.00;;;;;;;-5.03;93.96;100058.84;5093921;28;20827;-78
2021/12/25 05:50:23;;;;;;;0.73;0.10;;;;;;;-5.03;94.17;100069.50;5093872;28;20209;-79
2021/12/25 05:52:48;;;;;;;0.03;0.03;;;;;;;-5.03;94.74;100078.31;5093854;28;20624;-79
2021/12/25 05:55:14;;;;;;;0.10;0.10;;;;;;;-5.03;95.42;100082.81;5093722;28;20640;-79
2021/12/25 05:57:39;;;;;;;2.23;0.37;;;;;;;-5.06;94.62;100073.41;5092368;28;20541;-79
2021/12/25 06:00:08;;;;;;;0.90;0.20;;;;;;;-5.15;94.79;100069.38;5093664;28;20499;-78
2021/12/25 06:02:35;;;;;;;0.70;0.70;;;;;;;-5.14;94.58;100071.03;5093390;28;20692;-78
2021/12/25 06:05:03;;;;;;;0.10;0.10;;;;;;;-5.12;94.53;100077.75;5093436;28;20433;-78
2021/12/25 06:07:28;;;;;;;5.40;0.30;;;;;;;-5.15;94.62;100074.72;5093764;28;20420;-79
2021/12/25 06:09:54;;;;;;;0.33;0.33;;;;;;;-5.16;94.60;100070.44;5093506;28;20423;-80
2021/12/25 06:12:19;;;;;;;0.20;0.17;;;;;;;-5.15;95.55;100075.53;5093418;28;20624;-79
2021/12/25 06:14:46;;;;;;;1.07;0.60;;;;;;;-5.20;95.20;100082.56;5093259;28;20229;-78
2021/12/25 06:17:12;;;;;;;0.90;0.40;;;;;;;-5.22;95.16;100082.75;5092099;28;20181;-79
2021/12/25 06:19:37;;;;;;;0.20;0.20;;;;;;;-5.21;95.44;100087.06;5093284;28;20415;-78
2021/12/25 06:22:03;;;;;;;1.57;0.50;;;;;;;-5.23;95.66;100083.78;5093147;28;20181;-78
2021/12/25 06:24:29;;;;;;;1.50;0.20;;;;;;;-5.22;95.38;100093.38;5093179;28;20176;-79
2021/12/25 06:26:55;;;;;;;0.50;0.20;;;;;;;-5.22;96.26;100093.38;5092964;28;20181;-77
2021/12/25 06:29:20;;;;;;;0.47;0.47;;;;;;;-5.28;96.04;100090.78;5093026;28;20499;-77
2021/12/25 06:31:47;;;;;;;0.40;0.10;;;;;;;-5.31;95.87;100100.03;5093137;28;20200;-78
2021/12/25 06:34:13;;;;;;;0.10;0.10;;;;;;;-5.31;95.22;100096.56;5092139;28;20201;-79
2021/12/25 06:36:38;;;;;;;0.87;0.30;;;;;;;-5.28;95.58;100102.25;5092907;28;20424;-77
2021/12/25 06:39:04;;;;;;;2.70;0.37;;;;;;;-5.30;94.28;100104.31;5092926;28;20633;-78
2021/12/25 06:41:30;;;;;;;0.20;0.20;;;;;;;-5.32;94.41;100106.38;5092836;28;20382;-77
2021/12/25 06:43:56;;;;;;;0.37;0.20;;;;;;;-5.33;94.81;100119.91;5092707;28;20178;-80
2021/12/25 06:46:21;;;;;;;0.20;0.10;;;;;;;-5.32;94.28;100118.88;5092637;28;20185;-79
2021/12/25 06:48:46;;;;;;;0.40;0.20;;;;;;;-5.34;95.56;100115.63;5092717;28;20416;-78
2021/12/25 06:51:13;;;;;;;0.20;0.20;;;;;;;-5.33;95.02;100111.94;5092727;28;20169;-78
2021/12/25 06:53:38;;;;;;;0.50;0.30;;;;;;;-5.33;95.33;100109.28;5092723;28;20193;-78
2021/12/25 06:56:04;;;;;;;0.13;0.10;;;;;;;-5.37;95.01;100124.84;5092483;28;20817;-80
2021/12/25 06:58:30;;;;;;;0.30;0.20;;;;;;;-5.36;95.25;100123.81;5092430;28;20174;-79
2021/12/25 07:00:55;;;;;;;0.20;0.13;;;;;;;-5.35;94.50;100127.28;5090995;28;20604;-79
2021/12/25 07:03:21;;;;;;;1.40;0.50;;;;;;;-5.38;95.09;100121.34;5091893;28;20181;-78
2021/12/25 07:05:46;;;;;;;0.57;0.43;;;;;;;-5.34;95.43;100134.25;5092295;28;20515;-78
2021/12/25 07:08:12;;;;;;;0.90;0.30;;;;;;;-5.41;95.37;100132.44;5092724;28;20170;-78
2021/12/25 07:10:37;;;;;;;0.50;0.40;;;;;;;-5.46;96.12;100137.59;5092231;28;20197;-78
2021/12/25 07:13:02;;;;;;;0.87;0.70;;;;;;;-5.42;95.37;100140.66;5092421;28;20178;-78
2021/12/25 07:15:28;;;;;;;3.40;0.40;;;;;;;-5.45;96.16;100139.22;5091966;28;20452;-78
2021/12/25 07:17:53;;;;;;;0.63;0.63;;;;;;;-5.43;96.10;100144.34;5091882;28;20695;-79
2021/12/25 07:20:19;;;;;;;0.23;0.23;;;;;;;-5.49;96.01;100143.38;5092163;28;20200;-81
2021/12/25 07:22:45;;;;;;;0.07;0.07;;;;;;;-5.47;96.41;100143.97;5091887;28;20185;-80
2021/12/25 07:25:10;;;;;;;0.80;0.33;;;;;;;-5.47;96.22;100146.63;5091630;28;20173;-80
2021/12/25 07:27:36;;;;;;;0.33;0.27;;;;;;;-5.50;95.37;100148.88;5090605;28;20516;-80
2021/12/25 07:30:04;;;;;;;0.53;0.53;;;;;;;-5.55;96.97;100157.50;5090735;28;20542;-79
2021/12/25 07:32:29;;;;;;;1.27;0.40;;;;;;;-5.57;96.63;100140.94;5090704;28;20649;-81
2021/12/25 07:34:56;;;;;;;0.33;0.33;;;;;;;-5.57;95.69;100145.44;5091690;28;20505;-80
2021/12/25 07:37:21;;;;;;;1.93;1.23;;;;;;;-5.57;95.86;100156.91;5091866;28;20180;-80
2021/12/25 07:39:46;;;;;;;0.77;0.40;;;;;;;-5.54;95.74;100161.78;5091285;28;20513;-78
2021/12/25 07:42:12;;;;;;;0.90;0.90;;;;;;;-5.55;94.56;100154.84;5090140;28;20213;-81
2021/12/25 07:44:38;;;;;;;0.73;0.27;;;;;;;-5.54;94.25;100156.47;5091554;28;20637;-83
2021/12/25 07:47:09;;;;;;;0.50;0.47;;;;;;;-5.57;94.12;100162.22;5091476;28;20439;-82
2021/12/25 07:49:35;;;;;;;0.50;0.50;;;;;;;-5.60;94.75;100164.50;5091648;28;20174;-79
2021/12/25 07:52:00;;;;;;;6.67;0.50;;;;;;;-5.60;94.38;100173.31;5090306;28;20453;-80
2021/12/25 07:54:25;;;;;;;0.47;0.40;;;;;;;-5.62;95.14;100172.69;5090152;28;20219;-78
2021/12/25 07:56:51;;;;;;;0.20;0.20;;;;;;;-5.58;95.04;100181.06;5089983;28;20189;-80
2021/12/25 07:59:16;;;;;;;1.20;0.90;;;;;;;-5.54;95.00;100182.25;5091403;28;20169;-80
2021/12/25 08:01:42;;;;;;;0.20;0.20;;;;;;;-5.57;94.59;100186.16;5091308;28;20621;-79
2021/12/25 08:04:09;;;;;;;0.30;0.30;;;;;;;-5.57;94.17;100183.50;5091171;28;20515;-80
2021/12/25 08:06:35;;;;;;;0.37;0.37;;;;;;;-5.59;93.90;100196.22;5091060;28;20166;-81
2021/12/25 08:09:03;;;;;;;0.33;0.27;;;;;;;-5.55;94.34;100194.75;5091318;28;20415;-79
2021/12/25 08:11:30;;;;;;;0.90;0.60;;;;;;;-5.55;94.07;100193.94;5091250;28;20185;-78
2021/12/25 08:13:56;;;;;;;0.80;0.30;;;;;;;-5.54;94.70;100196.38;5091418;28;20487;-78
2021/12/25 08:16:22;;;;;;;0.97;0.50;;;;;;;-5.47;94.55;100197.19;5090900;28;21028;-78
2021/12/25 08:18:48;;;;;;;2.40;1.03;;;;;;;-5.43;94.78;100198.38;5090945;28;20565;-79
2021/12/25 08:21:14;;;;;;;0.50;0.37;;;;;;;-5.40;93.90;100203.28;5091165;28;20239;-78
2021/12/25 08:23:40;;;;;;;1.20;0.80;;;;;;;-5.38;93.99;100203.88;5089783;28;20688;-78
2021/12/25 08:26:08;;;;;;;1.07;0.83;;;;;;;-5.32;93.91;100210.22;5091634;28;20475;-78
2021/12/25 08:28:33;;;;;;;1.10;0.90;;;;;;;-5.25;93.35;100210.16;5091363;28;20428;-77
2021/12/25 08:30:59;;;;;;;0.37;0.37;;;;;;;-5.19;92.08;100209.31;5091264;28;20412;-78
2021/12/25 08:33:24;;;;;;;2.63;0.50;;;;;;;-5.17;91.78;100215.25;5090968;28;20201;-78
2021/12/25 08:35:50;;;;;;;1.10;0.97;;;;;;;-5.16;91.23;100201.72;5089559;28;20173;-78
2021/12/25 08:38:15;;;;;;;0.83;0.60;;;;;;;-5.16;89.69;100211.56;5089586;28;20208;-78
2021/12/25 08:40:42;;;;;;;1.10;0.67;;;;;;;-5.13;90.02;100209.25;5090956;28;20640;-78
2021/12/25 08:43:08;;;;;;;0.33;0.17;;;;;;;-5.10;88.70;100216.81;5090935;28;20166;-78
2021/12/25 08:45:49;;;;;;;1.03;0.60;;;;;;;-5.09;89.05;100217.63;5090596;28;20431;-78
2021/12/25 08:48:24;;;;;;;0.20;0.20;;;;;;;-4.99;87.90;100233.97;5090719;28;20412;-78
2021/12/25 08:50:52;;;;;;;1.60;0.80;;;;;;;-5.02;86.01;100223.75;5090993;28;20422;-78
2021/12/25 08:53:19;;;;;;;0.60;0.60;;;;;;;-5.02;86.44;100223.75;5090760;28;20419;-77
2021/12/25 08:55:46;;;;;;;0.90;0.90;;;;;;;-4.99;86.22;100233.97;5090607;28;20412;-78
2021/12/25 08:58:11;;;;;;;0.93;0.63;;;;;;;-5.03;86.22;100227.44;5092790;28;20431;-75
2021/12/25 09:00:37;;;;;;;0.60;0.60;;;;;;;-4.98;85.94;100240.09;5094873;28;20418;-76
2021/12/25 09:03:02;;;;;;;0.60;0.60;;;;;;;-4.97;84.62;100244.41;5094552;28;20629;-78
2021/12/25 09:05:28;;;;;;;0.23;0.17;;;;;;;-4.98;84.95;100245.44;5094604;28;20256;-78
2021/12/25 09:07:53;;;;;;;0.00;0.00;;;;;;;-4.98;83.97;100245.44;5094528;28;20254;-78
2021/12/25 09:10:19;;;;;;;0.00;0.00;;;;;;;-4.94;83.48;100242.13;5093502;28;20174;-78
2021/12/25 09:12:45;;;;;;;0.03;0.03;;;;;;;-4.97;83.83;100247.06;5094615;28;20223;-78
2021/12/25 09:15:12;;;;;;;0.00;0.00;;;;;;;-4.96;83.50;100254.84;5094366;28;20216;-78
2021/12/25 09:17:38;;;;;;;0.33;0.20;;;;;;;-4.98;83.58;100254.25;5094614;28;20484;-78
2021/12/25 09:20:05;;;;;;;2.57;0.23;;;;;;;-4.91;84.27;100259.53;5095921;28;20419;-76
2021/12/25 09:22:31;;;;;;;0.20;0.10;;;;;;;-4.93;83.73;100254.41;5094502;28;20431;-75
2021/12/25 09:24:56;;;;;;;0.30;0.23;;;;;;;-4.95;83.17;100264.47;5094376;28;20828;-76
2021/12/25 09:27:21;;;;;;;0.20;0.20;;;;;;;-4.94;83.36;100265.28;5094464;28;20182;-75
2021/12/25 09:29:48;;;;;;;0.00;0.00;;;;;;;-4.96;82.91;100268.16;5094660;28;20178;-75
2021/12/25 09:32:13;;;;;;;0.10;0.10;;;;;;;-4.96;82.75;100268.16;5094314;28;20166;-74
2021/12/25 09:34:39;;;;;;;3.10;0.17;;;;;;;-4.93;82.72;100265.06;5094121;28;20459;-75
2021/12/25 09:37:05;;;;;;;0.10;0.03;;;;;;;-4.94;82.92;100271.41;5094471;28;20520;-75
2021/12/25 09:39:31;;;;;;;0.70;0.30;;;;;;;-4.94;82.75;100271.41;5094367;28;20178;-75
2021/12/25 09:41:56;;;;;;;1.07;0.73;;;;;;;-4.94;83.78;100267.94;5094167;28;20542;-76
2021/12/25 09:44:21;;;;;;;0.53;0.30;;;;;;;-5.00;82.03;100263.47;5094229;28;20174;-75
2021/12/25 09:46:47;;;;;;;0.07;0.07;;;;;;;-5.00;81.59;100264.31;5094070;28;20173;-75
2021/12/25 09:49:12;;;;;;;0.40;0.40;;;;;;;-4.97;81.45;100268.38;5092886;28;20748;-74
2021/12/25 09:51:38;;;;;;;0.20;0.20;;;;;;;-4.97;82.13;100263.06;5094056;28;20172;-74
2021/12/25 09:54:07;;;;;;;0.73;0.30;;;;;;;-4.95;83.17;100268.97;5094261;28;20216;-76
2021/12/25 09:56:35;;;;;;;0.10;0.10;;;;;;;-4.96;82.72;100267.34;5093854;28;20185;-78
2021/12/25 09:59:02;;;;;;;3.40;0.20;;;;;;;-5.01;82.34;100273.31;5093727;28;20423;-75
2021/12/25 10:01:31;;;;;;;0.10;0.10;;;;;;;-4.99;82.19;100267.78;5093778;28;20446;-74
2021/12/25 10:03:57;;;;;;;0.00;0.00;;;;;;;-4.97;82.69;100276.38;5093494;28;20494;-75
2021/12/25 10:06:35;;;;;;;1.23;0.27;;;;;;;-4.94;83.26;100271.41;5093561;28;20768;-76
2021/12/25 10:09:11;;;;;;;0.00;0.00;;;;;;;-4.90;82.51;100269.97;5092877;28;20166;-77
2021/12/25 10:11:36;;;;;;;0.50;0.50;;;;;;;-4.92;82.73;100273.88;5093883;28;20959;-75
2021/12/25 10:14:01;;;;;;;0.63;0.30;;;;;;;-4.94;82.43;100268.75;5093505;28;20505;-74
2021/12/25 10:16:30;;;;;;;0.60;0.53;;;;;;;-4.94;82.46;100268.75;5093632;28;20166;-75
2021/12/25 10:19:17;;;;;;;0.50;0.37;;;;;;;-4.94;83.00;100278.59;5093425;28;20178;-74
2021/12/25 10:21:43;;;;;;;0.40;0.30;;;;;;;-4.88;82.94;100278.56;5093275;28;20427;-78
2021/12/25 10:24:26;;;;;;;5.37;0.60;;;;;;;-4.84;83.21;100278.94;5093543;28;20416;-75
2021/12/25 10:26:53;;;;;;;2.13;0.83;;;;;;;-4.77;83.16;100290.41;5092992;28;20193;-77
2021/12/25 10:29:26;;;;;;;0.60;0.60;;;;;;;-4.69;83.55;100295.47;5094059;28;20422;-76
2021/12/25 10:31:54;;;;;;;1.27;0.80;;;;;;;-4.63;83.65;100301.75;5093258;28;20440;-78
2021/12/25 10:34:23;;;;;;;0.60;0.60;;;;;;;-4.61;84.07;100291.72;5092906;28;20475;-77
2021/12/25 10:36:49;;;;;;;1.27;0.93;;;;;;;-4.67;82.53;100290.72;5092980;28;20408;-77
2021/12/25 10:39:22;;;;;;;0.53;0.53;;;;;;;-4.64;82.54;100290.28;5091652;28;20774;-77
2021/12/25 10:42:10;;;;;;;0.97;0.60;;;;;;;-4.66;82.72;100279.03;5091716;28;20843;-76
2021/12/25 10:44:58;;;;;;;1.30;1.00;;;;;;;-4.67;81.82;100288.06;5092963;28;20495;-78
2021/12/25 10:47:26;;;;;;;1.90;0.60;;;;;;;-4.60;81.98;100280.03;5092848;28;20498;-81
2021/12/25 10:50:14;;;;;;;0.97;0.77;;;;;;;-4.56;83.00;100291.88;5093244;28;20806;-80
2021/12/25 10:52:45;;;;;;;0.40;0.40;;;;;;;-4.52;82.74;100285.09;5092887;28;20765;-83
2021/12/25 10:55:18;;;;;;;0.47;0.33;;;;;;;-4.41;83.63;100287.06;5092569;28;20471;-77
2021/12/25 10:57:48;;;;;;;0.60;0.60;;;;;;;-4.40;83.48;100280.69;5092866;28;20404;-78
2021/12/25 11:00:22;;;;;;;1.90;0.47;;;;;;;-4.47;83.05;100269.28;5093102;28;20412;-77
2021/12/25 11:02:49;;;;;;;1.10;0.50;;;;;;;-4.42;83.19;100272.09;5091518;28;20416;-79
2021/12/25 11:05:21;;;;;;;0.63;0.63;;;;;;;-4.29;83.78;100281.84;5094036;28;20420;-78
2021/12/25 11:08:01;;;;;;;0.90;0.70;;;;;;;-4.36;83.15;100279.22;5093808;28;20408;-79
2021/12/25 11:10:29;;;;;;;0.97;0.63;;;;;;;-4.27;83.76;100285.91;5092580;28;20483;-81
2021/12/25 11:12:55;;;;;;;0.30;0.30;;;;;;;-4.16;83.20;100291.59;5091175;28;20435;-80
2021/12/25 11:15:27;;;;;;;0.87;0.80;;;;;;;-4.08;83.50;100293.94;5092421;28;20532;-77
2021/12/25 11:18:04;;;;;;;1.00;0.90;;;;;;;-4.11;83.16;100289.06;5092250;28;20205;-78
2021/12/25 11:20:35;;;;;;;1.43;1.33;;;;;;;-4.08;83.53;100281.44;5091934;28;20431;-78
2021/12/25 11:23:04;;;;;;;3.50;0.40;;;;;;;-4.01;83.11;100281.38;5092035;28;20846;-78
2021/12/25 11:25:31;;;;;;;0.10;0.10;;;;;;;-4.10;80.43;100274.69;5092033;28;20427;-78
2021/12/25 11:27:58;;;;;;;0.20;0.20;;;;;;;-4.04;80.49;100277.31;5091904;28;20416;-78
2021/12/25 11:30:30;;;;;;;0.33;0.33;;;;;;;-4.08;80.03;100283.28;5090642;28;21074;-79
2021/12/25 11:32:56;;;;;;;7.23;0.30;;;;;;;-3.97;80.08;100286.06;5092397;28;20452;-79
2021/12/25 11:35:22;;;;;;;0.27;0.27;;;;;;;-3.96;78.97;100281.53;5091695;28;20474;-79
2021/12/25 11:37:49;;;;;;;0.43;0.30;;;;;;;-4.05;78.18;100277.50;5091617;28;20420;-80
2021/12/25 11:40:17;;;;;;;0.83;0.43;;;;;;;-4.13;78.46;100280.47;5091375;28;20659;-80
2021/12/25 11:42:45;;;;;;;0.20;0.20;;;;;;;-4.18;78.20;100280.31;5091969;28;20515;-80
2021/12/25 11:45:17;;;;;;;0.10;0.00;;;;;;;-4.12;78.17;100287.44;5091538;28;20894;-80
2021/12/25 11:47:55;;;;;;;1.70;0.40;;;;;;;-4.13;77.71;100285.81;5088487;28;20797;-80
2021/12/25 11:50:44;;;;;;;0.83;0.27;;;;;;;-4.11;77.81;100281.06;5091823;28;20771;-81
2021/12/25 11:58:51;;;;;;;0.23;0.20;;;;;;;-4.07;79.59;100277.72;5071151;28;20419;-78
2021/12/25 12:01:19;;;;;;;1.03;0.53;;;;;;;-4.12;78.38;100282.91;5071169;28;20512;-78
2021/12/25 12:03:57;;;;;;;0.37;0.37;;;;;;;-3.98;78.76;100287.09;5070827;28;20456;-79
2021/12/25 12:06:48;;;;;;;0.30;0.30;;;;;;;-4.03;78.43;100280.78;5070380;28;20424;-80
2021/12/25 12:09:21;;;;;;;1.70;0.33;;;;;;;-4.06;77.46;100275.88;5065013;28;20425;-80
2021/12/25 12:12:24;;;;;;;0.80;0.80;;;;;;;-3.94;78.17;100282.94;5070618;28;20423;-79
2021/12/25 12:15:17;;;;;;;1.63;0.40;;;;;;;-3.97;78.12;100286.06;5070338;28;20465;-79
2021/12/25 12:17:43;;;;;;;0.60;0.53;;;;;;;-3.96;77.53;100287.69;5070504;28;20420;-79
2021/12/25 12:20:15;;;;;;;0.93;0.27;;;;;;;-3.92;78.41;100277.38;5070677;28;20428;-78
2021/12/25 12:22:53;;;;;;;0.17;0.17;;;;;;;-4.04;77.48;100277.31;5070406;28;20564;-79
2021/12/25 12:25:43;;;;;;;2.67;0.40;;;;;;;-3.98;77.47;100275.59;5068933;28;20433;-79
2021/12/25 12:28:08;;;;;;;0.70;0.43;;;;;;;-3.95;78.25;100275.16;5069202;28;20413;-79
2021/12/25 12:30:34;;;;;;;0.20;0.20;;;;;;;-4.00;77.56;100277.69;5070500;28;20778;-78
2021/12/25 12:33:24;;;;;;;0.70;0.50;;;;;;;-3.97;77.88;100271.91;5069731;28;20166;-79
2021/12/25 12:35:54;;;;;;;1.23;0.60;;;;;;;-3.93;77.72;100281.09;5068641;28;20178;-78
2021/12/25 12:38:37;;;;;;;0.40;0.40;;;;;;;-4.01;77.70;100276.88;5070638;28;20417;-78
2021/12/25 12:41:38;;;;;;;1.30;1.07;;;;;;;-3.94;78.08;100276.78;5070486;28;20785;-79
2021/12/25 12:44:09;;;;;;;0.47;0.27;;;;;;;-3.92;79.35;100266.69;5070664;28;20903;-78
2021/12/25 12:46:56;;;;;;;0.20;0.20;;;;;;;-3.95;78.63;100265.31;5068701;28;20428;-79
2021/12/25 12:49:30;;;;;;;0.20;0.20;;;;;;;-3.96;76.91;100263.66;5070326;28;20409;-80
2021/12/25 12:52:14;;;;;;;0.90;0.43;;;;;;;-3.93;77.94;100257.88;5070242;28;20413;-79
2021/12/25 12:54:46;;;;;;;0.43;0.20;;;;;;;-3.96;76.54;100265.53;5070099;28;20853;-79
2021/12/25 12:57:41;;;;;;;0.40;0.37;;;;;;;-3.96;76.42;100258.34;5070277;28;20432;-78